Time;durP1;ratioP1;P1;durP2;ratioP2;P2;SDS_P1;SDS_P2;PMS_P1;PMS_P2;Temp;Humidity;BMP_temperature;BMP_pressure;BME280_temperature;BME280_humidity;BME280_pressure;Samples;Min_cycle;Max_cycle;Signal;HPM_P1;HPM_P2
2022/03/04 00:02:05;;;;;;;21.70;15.20;;;;;;;;;;5071218;27;100479;-66
2022/03/04 00:04:37;;;;;;;24.00;15.25;;;;;;;;;;5069373;27;100052;-67
2022/03/04 00:07:04;;;;;;;24.83;15.23;;;;;;;;;;5069969;27;100177;-67
2022/03/04 00:09:30;;;;;;;24.13;15.80;;;;;;;;;;5054902;27;99646;-66
2022/03/04 00:11:57;;;;;;;23.75;15.73;;;;;;;;;;5065655;27;98642;-66
2022/03/04 00:14:24;;;;;;;17.88;14.60;;;;;;;;;;5070103;27;99994;-67
2022/03/04 00:16:51;;;;;;;19.17;14.88;;;;;;;;;;5073337;27;99957;-66
2022/03/04 00:19:17;;;;;;;21.27;14.13;;;;;;;;;;5071036;27;99073;-67
2022/03/04 00:21:47;;;;;;;21.05;15.50;;;;;;;;;;5069752;27;98934;-66
2022/03/04 00:24:13;;;;;;;18.50;13.82;;;;;;;;;;5069657;27;98613;-66
2022/03/04 00:26:39;;;;;;;17.75;12.63;;;;;;;;;;5070160;27;100128;-67
2022/03/04 00:29:07;;;;;;;22.40;15.77;;;;;;;;;;5069788;27;100172;-66
2022/03/04 00:31:34;;;;;;;22.25;14.82;;;;;;;;;;5048845;27;99363;-66
2022/03/04 00:34:00;;;;;;;20.88;14.35;;;;;;;;;;5050797;27;100316;-66
2022/03/04 00:36:27;;;;;;;19.23;14.88;;;;;;;;;;5049512;27;100682;-66
2022/03/04 00:38:55;;;;;;;19.10;14.50;;;;;;;;;;5053257;27;99100;-67
2022/03/04 00:41:22;;;;;;;30.85;15.57;;;;;;;;;;5048263;27;100274;-67
2022/03/04 00:43:49;;;;;;;21.85;15.50;;;;;;;;;;5046153;27;100821;-67
2022/03/04 00:46:16;;;;;;;18.13;12.40;;;;;;;;;;5039290;27;100118;-67
2022/03/04 00:48:43;;;;;;;20.85;14.88;;;;;;;;;;5031890;27;101316;-67
2022/03/04 00:51:10;;;;;;;25.05;15.82;;;;;;;;;;5030528;27;98600;-67
2022/03/04 00:53:36;;;;;;;25.00;16.02;;;;;;;;;;5041697;27;101087;-67
2022/03/04 00:56:03;;;;;;;27.27;17.52;;;;;;;;;;5048582;27;99503;-67
2022/03/04 00:58:29;;;;;;;22.67;16.20;;;;;;;;;;5048503;27;99080;-67
2022/03/04 01:00:56;;;;;;;23.70;17.50;;;;;;;;;;5053345;27;99919;-66
2022/03/04 01:03:23;;;;;;;22.38;15.68;;;;;;;;;;5049227;27;98562;-66
2022/03/04 01:05:49;;;;;;;28.30;16.08;;;;;;;;;;5050187;27;99248;-66
2022/03/04 01:08:16;;;;;;;21.67;14.88;;;;;;;;;;5049160;27;99838;-67
2022/03/04 01:10:42;;;;;;;29.27;17.63;;;;;;;;;;5050272;27;98125;-67
2022/03/04 01:13:09;;;;;;;25.13;16.38;;;;;;;;;;5049465;27;98619;-67
2022/03/04 01:15:38;;;;;;;28.58;17.15;;;;;;;;;;5049873;27;100205;-67
2022/03/04 01:18:05;;;;;;;22.23;16.42;;;;;;;;;;5046626;27;101834;-66
2022/03/04 01:20:32;;;;;;;24.50;16.40;;;;;;;;;;5052407;27;100639;-67
2022/03/04 01:22:58;;;;;;;24.48;16.42;;;;;;;;;;5049620;27;98577;-67
2022/03/04 01:25:24;;;;;;;22.52;16.92;;;;;;;;;;5048378;27;99235;-67
2022/03/04 01:27:51;;;;;;;22.30;16.33;;;;;;;;;;5048420;27;99573;-67
2022/03/04 01:30:18;;;;;;;24.42;16.50;;;;;;;;;;5055881;27;98771;-66
2022/03/04 01:32:45;;;;;;;28.52;18.50;;;;;;;;;;5069449;27;100102;-67
2022/03/04 01:35:12;;;;;;;24.85;16.27;;;;;;;;;;5070244;27;99820;-67
2022/03/04 01:37:39;;;;;;;29.10;17.00;;;;;;;;;;5066960;27;99229;-67
2022/03/04 01:40:06;;;;;;;23.38;16.38;;;;;;;;;;5069104;27;101487;-66
2022/03/04 01:42:33;;;;;;;24.20;15.48;;;;;;;;;;5071893;27;101158;-66
2022/03/04 01:44:59;;;;;;;25.35;16.63;;;;;;;;;;5069259;27;100757;-67
2022/03/04 01:47:25;;;;;;;24.92;16.65;;;;;;;;;;5068097;27;99796;-67
2022/03/04 01:49:52;;;;;;;23.05;16.38;;;;;;;;;;5060722;27;99094;-67
2022/03/04 01:52:19;;;;;;;25.40;17.92;;;;;;;;;;5056345;27;99288;-67
2022/03/04 01:54:45;;;;;;;22.88;16.88;;;;;;;;;;5064234;27;100234;-66
2022/03/04 01:57:12;;;;;;;30.05;17.92;;;;;;;;;;5066924;27;99179;-66
2022/03/04 01:59:38;;;;;;;24.95;17.05;;;;;;;;;;5069011;27;98944;-66
2022/03/04 02:02:05;;;;;;;25.25;18.05;;;;;;;;;;5068611;27;100335;-66
2022/03/04 02:04:31;;;;;;;25.48;16.83;;;;;;;;;;5072202;27;98499;-65
2022/03/04 02:06:58;;;;;;;31.98;16.77;;;;;;;;;;5067597;27;100158;-67
2022/03/04 02:09:24;;;;;;;28.73;16.30;;;;;;;;;;5066739;27;98685;-66
2022/03/04 02:11:51;;;;;;;24.58;16.85;;;;;;;;;;5069160;27;99365;-66
2022/03/04 02:14:17;;;;;;;27.75;17.30;;;;;;;;;;5066938;27;100240;-66
2022/03/04 02:16:47;;;;;;;30.35;17.02;;;;;;;;;;5068160;27;98547;-65
2022/03/04 02:19:14;;;;;;;26.75;16.98;;;;;;;;;;5051499;27;99220;-66
2022/03/04 02:21:47;;;;;;;23.40;16.08;;;;;;;;;;5062818;27;99593;-66
2022/03/04 02:24:13;;;;;;;31.70;16.92;;;;;;;;;;5068917;27;97831;-66
2022/03/04 02:26:39;;;;;;;23.15;16.00;;;;;;;;;;5065939;27;99067;-66
2022/03/04 02:29:06;;;;;;;28.58;16.70;;;;;;;;;;5069337;27;98636;-66
2022/03/04 02:31:32;;;;;;;25.35;17.40;;;;;;;;;;5066915;27;99314;-66
2022/03/04 02:33:58;;;;;;;24.70;16.00;;;;;;;;;;5068229;27;100178;-67
2022/03/04 02:36:25;;;;;;;27.60;17.65;;;;;;;;;;5064973;27;99121;-67
2022/03/04 02:38:51;;;;;;;29.30;16.45;;;;;;;;;;5053458;27;100887;-66
2022/03/04 02:41:17;;;;;;;23.05;15.65;;;;;;;;;;5067271;27;99203;-67
2022/03/04 02:43:44;;;;;;;22.10;15.88;;;;;;;;;;5069359;27;98554;-67
2022/03/04 02:46:10;;;;;;;24.60;16.58;;;;;;;;;;5071539;27;99895;-67
2022/03/04 02:48:37;;;;;;;28.48;17.48;;;;;;;;;;5072230;27;99907;-67
2022/03/04 02:51:03;;;;;;;26.75;16.70;;;;;;;;;;5069143;27;99496;-67
2022/03/04 02:53:30;;;;;;;28.88;17.13;;;;;;;;;;5069522;27;100454;-67
2022/03/04 02:55:57;;;;;;;26.10;17.27;;;;;;;;;;5060849;27;99579;-67
2022/03/04 02:58:23;;;;;;;28.60;16.33;;;;;;;;;;5063340;27;100818;-67
2022/03/04 03:00:50;;;;;;;23.85;16.48;;;;;;;;;;5065771;27;101444;-67
2022/03/04 03:03:17;;;;;;;24.27;17.48;;;;;;;;;;5067970;27;98525;-67
2022/03/04 03:05:43;;;;;;;29.02;16.73;;;;;;;;;;5067763;27;100614;-67
2022/03/04 03:08:10;;;;;;;26.92;16.83;;;;;;;;;;5066939;27;99559;-67
2022/03/04 03:10:37;;;;;;;25.48;17.35;;;;;;;;;;5070180;27;98637;-67
2022/03/04 03:13:03;;;;;;;26.73;17.85;;;;;;;;;;5068700;27;99448;-66
2022/03/04 03:15:30;;;;;;;26.63;16.02;;;;;;;;;;5068196;27;100621;-66
2022/03/04 03:17:56;;;;;;;26.80;17.95;;;;;;;;;;5066899;27;100289;-66
2022/03/04 03:20:23;;;;;;;28.58;16.15;;;;;;;;;;5067137;27;100933;-66
2022/03/04 03:22:49;;;;;;;24.35;16.08;;;;;;;;;;5067625;27;98914;-65
2022/03/04 03:25:16;;;;;;;22.77;15.10;;;;;;;;;;5068483;27;100419;-66
2022/03/04 03:27:42;;;;;;;24.40;15.10;;;;;;;;;;5066753;27;99885;-66
2022/03/04 03:30:09;;;;;;;24.42;14.43;;;;;;;;;;5065477;27;98986;-66
2022/03/04 03:32:37;;;;;;;22.90;14.95;;;;;;;;;;5065913;27;100251;-66
2022/03/04 03:35:03;;;;;;;25.10;16.60;;;;;;;;;;5066531;27;98651;-66
2022/03/04 03:37:30;;;;;;;23.42;16.42;;;;;;;;;;5067788;27;99140;-66
2022/03/04 03:39:56;;;;;;;23.55;16.23;;;;;;;;;;5067027;27;100198;-66
2022/03/04 03:42:22;;;;;;;24.40;15.63;;;;;;;;;;5068464;27;98893;-66
2022/03/04 03:44:49;;;;;;;24.23;14.90;;;;;;;;;;5066024;27;99294;-66
2022/03/04 03:47:18;;;;;;;20.73;15.98;;;;;;;;;;5067147;27;99608;-66
2022/03/04 03:49:44;;;;;;;26.00;17.33;;;;;;;;;;5066551;27;98980;-66
2022/03/04 03:52:10;;;;;;;26.73;15.98;;;;;;;;;;5069284;27;99603;-67
2022/03/04 03:54:37;;;;;;;25.98;15.32;;;;;;;;;;5065863;27;98750;-67
2022/03/04 03:57:03;;;;;;;25.55;15.82;;;;;;;;;;5068014;27;100608;-66
2022/03/04 03:59:30;;;;;;;21.95;16.17;;;;;;;;;;5065727;27;99510;-67
2022/03/04 04:01:58;;;;;;;27.30;15.43;;;;;;;;;;5062684;27;98205;-66
2022/03/04 04:04:25;;;;;;;26.52;15.13;;;;;;;;;;5063172;27;99735;-67
2022/03/04 04:06:51;;;;;;;23.60;15.82;;;;;;;;;;5051608;27;100397;-67
2022/03/04 04:09:18;;;;;;;28.27;17.98;;;;;;;;;;5051373;27;99256;-65
2022/03/04 04:11:44;;;;;;;27.42;16.85;;;;;;;;;;5068014;27;100710;-66
2022/03/04 04:14:11;;;;;;;21.95;15.32;;;;;;;;;;5068043;27;100211;-66
2022/03/04 04:16:37;;;;;;;24.70;16.02;;;;;;;;;;5068032;27;100272;-66
2022/03/04 04:19:04;;;;;;;25.20;15.98;;;;;;;;;;5067339;27;99421;-66
2022/03/04 04:21:30;;;;;;;24.48;15.80;;;;;;;;;;5070517;27;98952;-66
2022/03/04 04:23:57;;;;;;;26.23;16.70;;;;;;;;;;5069684;27;98946;-67
2022/03/04 04:26:23;;;;;;;25.30;15.70;;;;;;;;;;5070386;27;99101;-66
2022/03/04 04:28:51;;;;;;;24.00;16.48;;;;;;;;;;5069956;27;98566;-66
2022/03/04 04:31:17;;;;;;;26.65;16.63;;;;;;;;;;5070781;27;100170;-65
2022/03/04 04:33:44;;;;;;;27.42;16.58;;;;;;;;;;5068684;27;101017;-66
2022/03/04 04:36:10;;;;;;;27.20;16.73;;;;;;;;;;5073985;27;98909;-66
2022/03/04 04:38:36;;;;;;;22.35;15.73;;;;;;;;;;5069048;27;100687;-66
2022/03/04 04:41:03;;;;;;;22.10;17.08;;;;;;;;;;5070178;27;98990;-66
2022/03/04 04:43:29;;;;;;;23.90;16.25;;;;;;;;;;5070724;27;100114;-66
2022/03/04 04:45:55;;;;;;;24.38;16.80;;;;;;;;;;5070429;27;100156;-66
2022/03/04 04:48:22;;;;;;;25.08;17.63;;;;;;;;;;5068981;27;98712;-67
2022/03/04 04:50:48;;;;;;;27.00;17.30;;;;;;;;;;5069880;27;99217;-66
2022/03/04 04:53:15;;;;;;;22.70;16.05;;;;;;;;;;5069238;27;100277;-66
2022/03/04 04:55:41;;;;;;;24.20;16.20;;;;;;;;;;5070262;27;98650;-66
2022/03/04 04:58:07;;;;;;;33.38;17.30;;;;;;;;;;5072238;27;99332;-66
2022/03/04 05:00:34;;;;;;;25.50;16.58;;;;;;;;;;5069309;27;98577;-66
2022/03/04 05:03:00;;;;;;;27.77;17.98;;;;;;;;;;5068973;27;101220;-66
2022/03/04 05:05:27;;;;;;;27.33;17.02;;;;;;;;;;5070359;27;100153;-66
2022/03/04 05:07:53;;;;;;;33.50;17.92;;;;;;;;;;5059456;27;100043;-66
2022/03/04 05:10:20;;;;;;;27.20;16.48;;;;;;;;;;5054648;27;100307;-66
2022/03/04 05:12:46;;;;;;;28.10;16.35;;;;;;;;;;5058237;27;100735;-67
2022/03/04 05:15:13;;;;;;;21.98;17.17;;;;;;;;;;5050309;27;97802;-66
2022/03/04 05:17:39;;;;;;;31.20;17.20;;;;;;;;;;5061113;27;100729;-67
2022/03/04 05:20:05;;;;;;;26.60;17.10;;;;;;;;;;5071798;27;99363;-66
2022/03/04 05:22:32;;;;;;;24.58;16.98;;;;;;;;;;5068654;27;100306;-66
2022/03/04 05:24:58;;;;;;;27.58;17.52;;;;;;;;;;5069848;27;101314;-66
2022/03/04 05:27:24;;;;;;;22.45;15.02;;;;;;;;;;5069460;27;98637;-66
2022/03/04 05:29:51;;;;;;;25.27;16.25;;;;;;;;;;5068526;27;100126;-66
2022/03/04 05:32:17;;;;;;;21.73;15.65;;;;;;;;;;5068586;27;100318;-66
2022/03/04 05:34:43;;;;;;;24.40;16.80;;;;;;;;;;5069287;27;98502;-66
2022/03/04 05:37:10;;;;;;;24.17;15.90;;;;;;;;;;5068675;27;100080;-66
2022/03/04 05:39:36;;;;;;;26.55;17.23;;;;;;;;;;5072616;27;98866;-66
2022/03/04 05:42:03;;;;;;;30.40;17.58;;;;;;;;;;5069404;27;99319;-67
2022/03/04 05:44:29;;;;;;;31.25;17.50;;;;;;;;;;5067899;27;99407;-67
2022/03/04 05:46:56;;;;;;;26.75;17.13;;;;;;;;;;5068901;27;99475;-67
2022/03/04 05:49:22;;;;;;;25.13;16.88;;;;;;;;;;5067574;27;100442;-67
2022/03/04 05:51:48;;;;;;;30.83;17.20;;;;;;;;;;5067728;27;100137;-67
2022/03/04 05:54:15;;;;;;;22.35;16.10;;;;;;;;;;5069585;27;99855;-67
2022/03/04 05:56:41;;;;;;;29.83;18.17;;;;;;;;;;5070147;27;100623;-67
2022/03/04 05:59:07;;;;;;;22.50;16.40;;;;;;;;;;5067062;27;100474;-66
2022/03/04 06:01:34;;;;;;;28.08;17.88;;;;;;;;;;5073130;27;98570;-65
2022/03/04 06:04:00;;;;;;;28.52;16.85;;;;;;;;;;5068673;27;99502;-66
2022/03/04 06:06:27;;;;;;;27.17;18.17;;;;;;;;;;5068515;27;98913;-67
2022/03/04 06:08:54;;;;;;;29.65;17.40;;;;;;;;;;5068097;27;100117;-66
2022/03/04 06:11:20;;;;;;;28.77;17.33;;;;;;;;;;5068832;27;100972;-67
2022/03/04 06:13:46;;;;;;;26.77;15.88;;;;;;;;;;5056006;27;98793;-67
2022/03/04 06:16:13;;;;;;;31.80;18.70;;;;;;;;;;5051356;27;99267;-67
2022/03/04 06:18:39;;;;;;;28.48;17.90;;;;;;;;;;5057128;27;99721;-67
2022/03/04 06:21:05;;;;;;;30.90;17.52;;;;;;;;;;5066451;27;98551;-67
2022/03/04 06:23:32;;;;;;;26.60;17.30;;;;;;;;;;5072069;27;100105;-67
2022/03/04 06:25:58;;;;;;;31.50;17.52;;;;;;;;;;5067893;27;98604;-66
2022/03/04 06:28:25;;;;;;;27.50;16.67;;;;;;;;;;5068798;27;100007;-66
2022/03/04 06:30:52;;;;;;;24.40;17.25;;;;;;;;;;5067619;27;100383;-65
2022/03/04 06:33:30;;;;;;;31.08;16.98;;;;;;;;;;5068374;27;98935;-66
2022/03/04 06:36:01;;;;;;;25.08;17.17;;;;;;;;;;5067847;27;101105;-65
2022/03/04 06:38:27;;;;;;;28.52;17.52;;;;;;;;;;5067141;27;100061;-66
2022/03/04 06:40:54;;;;;;;33.90;18.13;;;;;;;;;;5066927;27;99058;-66
2022/03/04 06:43:21;;;;;;;25.15;17.27;;;;;;;;;;5066028;27;99921;-66
2022/03/04 06:45:47;;;;;;;24.15;17.00;;;;;;;;;;5067231;27;99759;-66
2022/03/04 06:48:14;;;;;;;25.60;17.45;;;;;;;;;;5065978;27;99144;-66
2022/03/04 06:50:41;;;;;;;25.58;16.80;;;;;;;;;;5068123;27;98601;-67
2022/03/04 06:53:07;;;;;;;27.90;17.05;;;;;;;;;;5068356;27;97832;-67
2022/03/04 06:55:33;;;;;;;26.00;17.42;;;;;;;;;;5067353;27;98985;-66
2022/03/04 06:58:00;;;;;;;29.88;17.33;;;;;;;;;;5067926;27;100588;-66
2022/03/04 07:00:27;;;;;;;27.10;17.60;;;;;;;;;;5067032;27;99973;-66
2022/03/04 07:02:54;;;;;;;25.38;16.48;;;;;;;;;;5067613;27;100195;-66
2022/03/04 07:05:23;;;;;;;26.27;17.08;;;;;;;;;;5067273;27;100599;-67
2022/03/04 07:07:50;;;;;;;25.15;15.98;;;;;;;;;;5070564;27;99395;-67
2022/03/04 07:10:17;;;;;;;25.17;17.77;;;;;;;;;;5062239;27;100647;-67
2022/03/04 07:12:44;;;;;;;33.50;18.02;;;;;;;;;;5064468;27;99495;-67
2022/03/04 07:15:10;;;;;;;29.58;17.83;;;;;;;;;;5064117;27;99638;-67
2022/03/04 07:17:40;;;;;;;31.88;18.30;;;;;;;;;;5066948;27;99347;-66
2022/03/04 07:20:07;;;;;;;24.98;16.55;;;;;;;;;;5054100;27;99401;-66
2022/03/04 07:22:35;;;;;;;23.17;16.33;;;;;;;;;;5058757;27;99874;-66
2022/03/04 07:25:03;;;;;;;26.42;16.27;;;;;;;;;;5057424;27;101816;-66
2022/03/04 07:27:29;;;;;;;23.70;15.93;;;;;;;;;;5064679;27;99231;-66
2022/03/04 07:29:56;;;;;;;27.23;16.30;;;;;;;;;;5068144;27;99985;-68
2022/03/04 07:32:22;;;;;;;27.00;16.77;;;;;;;;;;5056470;27;98555;-67
2022/03/04 07:34:54;;;;;;;22.27;16.27;;;;;;;;;;5067631;27;100034;-67
2022/03/04 07:37:20;;;;;;;21.77;16.17;;;;;;;;;;5065911;27;99500;-67
2022/03/04 07:39:47;;;;;;;25.73;15.93;;;;;;;;;;5064450;27;100914;-66
2022/03/04 07:42:13;;;;;;;24.35;15.10;;;;;;;;;;5062194;27;100195;-67
2022/03/04 07:44:41;;;;;;;21.08;14.35;;;;;;;;;;5046774;27;100694;-67
2022/03/04 07:47:07;;;;;;;25.50;15.27;;;;;;;;;;5065882;27;98572;-66
2022/03/04 07:49:33;;;;;;;20.65;14.68;;;;;;;;;;5063250;27;102025;-67
2022/03/04 07:52:00;;;;;;;22.52;15.77;;;;;;;;;;5065752;27;98659;-67
2022/03/04 07:54:26;;;;;;;23.63;15.70;;;;;;;;;;5069603;27;99242;-67
2022/03/04 07:56:52;;;;;;;27.55;15.00;;;;;;;;;;5070419;27;99575;-67
2022/03/04 07:59:19;;;;;;;23.48;15.13;;;;;;;;;;5070894;27;98561;-67
2022/03/04 08:01:45;;;;;;;26.40;14.73;;;;;;;;;;5071084;27;99197;-67
2022/03/04 08:04:12;;;;;;;23.85;14.75;;;;;;;;;;5070554;27;100706;-66
2022/03/04 08:06:39;;;;;;;23.17;14.20;;;;;;;;;;5072424;27;97776;-66
2022/03/04 08:09:05;;;;;;;28.60;16.55;;;;;;;;;;5070544;27;98521;-66
2022/03/04 08:11:33;;;;;;;26.50;16.17;;;;;;;;;;5073363;27;100010;-66
2022/03/04 08:13:59;;;;;;;23.15;15.10;;;;;;;;;;5070566;27;100493;-66
2022/03/04 08:16:25;;;;;;;22.38;14.75;;;;;;;;;;5071261;27;100248;-66
2022/03/04 08:18:52;;;;;;;27.70;15.73;;;;;;;;;;5070915;27;98514;-67
2022/03/04 08:21:18;;;;;;;22.38;14.15;;;;;;;;;;5071192;27;100037;-67
2022/03/04 08:23:45;;;;;;;24.95;15.68;;;;;;;;;;5070960;27;99501;-66
2022/03/04 08:26:11;;;;;;;25.00;15.43;;;;;;;;;;5070188;27;99004;-66
2022/03/04 08:28:37;;;;;;;25.30;15.77;;;;;;;;;;5071013;27;99138;-66
2022/03/04 08:31:10;;;;;;;22.80;15.63;;;;;;;;;;5070895;27;99875;-66
2022/03/04 08:33:39;;;;;;;27.80;17.92;;;;;;;;;;5072380;27;99075;-66
2022/03/04 08:36:06;;;;;;;24.45;14.27;;;;;;;;;;5059325;27;101325;-66
2022/03/04 08:38:32;;;;;;;20.60;16.25;;;;;;;;;;5062328;27;99422;-67
2022/03/04 08:41:00;;;;;;;23.98;16.63;;;;;;;;;;5061016;27;100227;-66
2022/03/04 08:43:26;;;;;;;23.95;14.55;;;;;;;;;;5062824;27;100793;-67
2022/03/04 08:45:54;;;;;;;20.80;11.77;;;;;;;;;;5043351;27;99042;-67
2022/03/04 08:48:24;;;;;;;26.77;16.40;;;;;;;;;;5066369;27;101985;-66
2022/03/04 08:50:51;;;;;;;23.42;16.30;;;;;;;;;;5060082;27;100224;-67
2022/03/04 08:53:17;;;;;;;30.25;17.80;;;;;;;;;;5058905;27;100834;-67
2022/03/04 08:55:45;;;;;;;27.48;17.55;;;;;;;;;;5067383;27;102138;-67
2022/03/04 08:58:12;;;;;;;19.67;14.43;;;;;;;;;;5059967;27;99000;-67
2022/03/04 09:00:38;;;;;;;25.50;17.70;;;;;;;;;;5060436;27;101728;-67
2022/03/04 09:03:05;;;;;;;24.55;17.30;;;;;;;;;;5058016;27;101013;-67
2022/03/04 09:05:32;;;;;;;23.15;16.92;;;;;;;;;;5059154;27;98704;-67
2022/03/04 09:07:58;;;;;;;21.25;15.40;;;;;;;;;;5056362;27;99874;-66
2022/03/04 09:10:24;;;;;;;24.75;16.92;;;;;;;;;;5058166;27;99471;-67
2022/03/04 09:12:51;;;;;;;29.23;16.92;;;;;;;;;;5056253;27;100590;-66
2022/03/04 09:15:17;;;;;;;19.38;15.18;;;;;;;;;;5056143;27;99115;-67
2022/03/04 09:17:43;;;;;;;22.50;17.45;;;;;;;;;;5059517;27;100424;-66
2022/03/04 09:20:13;;;;;;;27.60;16.55;;;;;;;;;;5064683;27;100168;-66
2022/03/04 09:22:40;;;;;;;24.42;17.48;;;;;;;;;;5054389;27;102222;-66
2022/03/04 09:25:07;;;;;;;25.02;16.45;;;;;;;;;;5058170;27;98580;-66
2022/03/04 09:27:34;;;;;;;18.85;12.63;;;;;;;;;;5058202;27;101417;-67
2022/03/04 09:30:00;;;;;;;27.60;16.65;;;;;;;;;;5056535;27;99907;-67
2022/03/04 09:32:26;;;;;;;23.23;16.80;;;;;;;;;;5062381;27;101028;-67
2022/03/04 09:34:53;;;;;;;21.88;15.80;;;;;;;;;;5057192;27;99272;-66
2022/03/04 09:37:19;;;;;;;23.95;15.52;;;;;;;;;;5058457;27;100278;-67
2022/03/04 09:39:45;;;;;;;21.88;14.80;;;;;;;;;;5059225;27;99406;-67
2022/03/04 09:42:12;;;;;;;20.73;15.27;;;;;;;;;;5057225;27;100429;-67
2022/03/04 09:44:40;;;;;;;19.15;13.60;;;;;;;;;;5055399;27;99952;-67
2022/03/04 09:47:07;;;;;;;14.23;9.25;;;;;;;;;;5055596;27;99475;-66
2022/03/04 09:49:35;;;;;;;24.90;14.65;;;;;;;;;;5058432;27;100280;-66
2022/03/04 09:52:02;;;;;;;10.20;8.55;;;;;;;;;;5058978;27;100643;-66
2022/03/04 09:54:29;;;;;;;15.90;9.35;;;;;;;;;;5058788;27;100597;-67
2022/03/04 09:56:56;;;;;;;17.02;12.85;;;;;;;;;;5062014;27;100850;-66
2022/03/04 09:59:22;;;;;;;18.52;13.02;;;;;;;;;;5060601;27;98779;-67
2022/03/04 10:01:49;;;;;;;21.42;15.18;;;;;;;;;;5059234;27;100378;-67
2022/03/04 10:04:16;;;;;;;22.95;16.05;;;;;;;;;;5055941;27;98682;-67
2022/03/04 10:06:47;;;;;;;23.40;16.30;;;;;;;;;;5055751;27;99287;-67
2022/03/04 10:09:31;;;;;;;18.75;13.77;;;;;;;;;;5057023;27;100531;-67
2022/03/04 10:12:02;;;;;;;20.10;15.20;;;;;;;;;;5054454;27;99199;-67
2022/03/04 10:14:30;;;;;;;12.07;9.40;;;;;;;;;;5055905;27;99906;-67
2022/03/04 10:16:57;;;;;;;20.52;12.50;;;;;;;;;;5059993;27;100960;-67
2022/03/04 10:19:23;;;;;;;14.82;11.35;;;;;;;;;;5056850;27;101477;-66
2022/03/04 10:21:55;;;;;;;16.00;12.45;;;;;;;;;;5057079;27;100025;-66
2022/03/04 10:24:23;;;;;;;23.77;14.65;;;;;;;;;;5057693;27;99002;-66
2022/03/04 10:26:59;;;;;;;17.35;12.63;;;;;;;;;;5061214;27;101478;-66
2022/03/04 10:29:26;;;;;;;16.65;13.50;;;;;;;;;;5055684;27;100694;-66
2022/03/04 10:32:08;;;;;;;26.85;16.15;;;;;;;;;;5057228;27;99018;-66
2022/03/04 10:34:46;;;;;;;18.70;12.18;;;;;;;;;;5053400;27;98969;-66
2022/03/04 10:37:12;;;;;;;21.90;14.98;;;;;;;;;;5056873;27;101216;-67
2022/03/04 10:39:58;;;;;;;17.65;13.88;;;;;;;;;;5057255;27;98748;-68
2022/03/04 10:42:41;;;;;;;21.50;12.95;;;;;;;;;;5055619;27;99895;-67
2022/03/04 10:45:09;;;;;;;20.17;13.52;;;;;;;;;;5056102;27;99873;-67
2022/03/04 10:47:55;;;;;;;21.35;15.38;;;;;;;;;;5052764;27;100072;-67
2022/03/04 10:50:27;;;;;;;18.30;14.00;;;;;;;;;;5058624;27;100119;-67
2022/03/04 10:53:13;;;;;;;16.13;12.65;;;;;;;;;;5055711;27;100651;-67
2022/03/04 10:55:40;;;;;;;19.38;13.20;;;;;;;;;;5058412;27;100506;-66
2022/03/04 10:58:11;;;;;;;19.25;13.27;;;;;;;;;;5055368;27;100660;-65
2022/03/04 11:00:38;;;;;;;19.55;15.60;;;;;;;;;;5055656;27;99252;-66
2022/03/04 11:03:07;;;;;;;20.63;14.50;;;;;;;;;;5055409;27;99320;-66
2022/03/04 11:05:34;;;;;;;21.20;12.32;;;;;;;;;;5057314;27;100848;-66
2022/03/04 11:08:01;;;;;;;20.73;14.05;;;;;;;;;;5058949;27;100934;-66
2022/03/04 11:10:28;;;;;;;17.10;12.25;;;;;;;;;;5058362;27;100758;-67
2022/03/04 11:12:55;;;;;;;21.88;15.75;;;;;;;;;;5055708;27;98753;-67
2022/03/04 11:15:22;;;;;;;15.20;11.70;;;;;;;;;;5053734;27;100361;-66
2022/03/04 11:17:49;;;;;;;23.75;16.30;;;;;;;;;;5058773;27;100562;-65
2022/03/04 11:20:17;;;;;;;19.35;13.30;;;;;;;;;;5056587;27;98685;-65
2022/03/04 11:22:44;;;;;;;18.27;13.73;;;;;;;;;;5053212;27;100229;-65
2022/03/04 11:25:12;;;;;;;19.60;13.80;;;;;;;;;;5056335;27;99453;-65
2022/03/04 11:27:49;;;;;;;19.42;11.77;;;;;;;;;;5055088;27;100978;-65
2022/03/04 11:30:33;;;;;;;19.67;12.60;;;;;;;;;;5057606;27;100754;-66
2022/03/04 11:33:03;;;;;;;21.73;14.88;;;;;;;;;;5061228;27;99733;-66
2022/03/04 11:35:48;;;;;;;17.50;12.57;;;;;;;;;;5057652;27;100455;-65
2022/03/04 11:38:14;;;;;;;19.00;13.30;;;;;;;;;;5059074;27;100315;-66
2022/03/04 11:40:49;;;;;;;21.02;14.73;;;;;;;;;;5053232;27;98635;-66
2022/03/04 11:43:16;;;;;;;17.25;14.02;;;;;;;;;;5052821;27;99941;-66
2022/03/04 11:45:42;;;;;;;18.23;14.32;;;;;;;;;;5057088;27;99548;-65
2022/03/04 11:48:10;;;;;;;18.90;15.27;;;;;;;;;;5055952;27;98701;-64
2022/03/04 11:50:58;;;;;;;20.58;14.18;;;;;;;;;;5060359;27;100583;-65
2022/03/04 11:53:25;;;;;;;15.63;11.18;;;;;;;;;;5053067;27;100917;-66
2022/03/04 11:56:12;;;;;;;19.00;14.13;;;;;;;;;;5054627;27;101180;-65
2022/03/04 11:58:54;;;;;;;18.17;13.77;;;;;;;;;;5054684;27;101144;-66
2022/03/04 12:01:25;;;;;;;17.05;13.95;;;;;;;;;;5055927;27;100592;-66
2022/03/04 12:04:05;;;;;;;18.58;14.65;;;;;;;;;;5053336;27;100535;-67
2022/03/04 12:06:32;;;;;;;23.40;13.93;;;;;;;;;;5053189;27;100619;-66
2022/03/04 12:09:17;;;;;;;23.48;13.57;;;;;;;;;;5060463;27;98953;-66
2022/03/04 12:12:03;;;;;;;17.35;13.43;;;;;;;;;;5061614;27;100449;-66
2022/03/04 12:14:30;;;;;;;19.70;13.10;;;;;;;;;;5059962;27;100211;-66
2022/03/04 12:16:56;;;;;;;21.30;13.75;;;;;;;;;;5058175;27;99462;-66
2022/03/04 12:19:30;;;;;;;21.50;12.25;;;;;;;;;;5057509;27;100604;-66
2022/03/04 12:21:57;;;;;;;20.45;13.80;;;;;;;;;;5059042;27;98653;-66
2022/03/04 12:24:30;;;;;;;18.63;12.93;;;;;;;;;;5062304;27;100252;-66
2022/03/04 12:26:56;;;;;;;;;;;;;;;;;;5058397;27;99582;-66
2022/03/04 12:29:39;;;;;;;18.05;12.25;;;;;;;;;;5060743;27;120394;-66
2022/03/04 12:32:06;;;;;;;17.77;12.02;;;;;;;;;;5056305;27;100309;-66
2022/03/04 12:34:32;;;;;;;17.50;12.45;;;;;;;;;;5057128;27;100259;-66
2022/03/04 12:37:05;;;;;;;17.33;13.07;;;;;;;;;;5063275;27;99271;-66
2022/03/04 12:39:35;;;;;;;19.60;11.48;;;;;;;;;;5057662;27;100732;-66
2022/03/04 12:42:02;;;;;;;14.07;11.57;;;;;;;;;;5063520;27;99879;-67
2022/03/04 12:44:28;;;;;;;13.90;9.48;;;;;;;;;;5062788;27;100841;-66
2022/03/04 12:46:55;;;;;;;10.73;9.18;;;;;;;;;;5066162;27;100990;-67
2022/03/04 12:49:31;;;;;;;11.55;9.82;;;;;;;;;;5059715;27;99858;-66
2022/03/04 12:51:57;;;;;;;11.60;8.18;;;;;;;;;;5058764;27;101980;-66
2022/03/04 12:54:28;;;;;;;13.32;9.35;;;;;;;;;;5059007;27;100670;-66
2022/03/04 12:57:01;;;;;;;11.13;9.70;;;;;;;;;;5057269;27;100257;-66
2022/03/04 12:59:30;;;;;;;14.35;11.23;;;;;;;;;;5063905;27;100779;-66
2022/03/04 13:01:57;;;;;;;14.32;10.77;;;;;;;;;;5058449;27;99998;-66
2022/03/04 13:04:24;;;;;;;10.73;8.70;;;;;;;;;;5057663;27;99356;-65
2022/03/04 13:06:58;;;;;;;51.70;15.73;;;;;;;;;;5057994;27;98689;-65
2022/03/04 13:09:25;;;;;;;11.63;9.20;;;;;;;;;;5060825;27;100212;-66
2022/03/04 13:11:52;;;;;;;13.05;8.90;;;;;;;;;;5057105;27;99364;-66
2022/03/04 13:14:19;;;;;;;10.60;8.65;;;;;;;;;;5059731;27;101137;-66
2022/03/04 13:16:49;;;;;;;15.27;9.55;;;;;;;;;;5059537;27;100773;-67
2022/03/04 13:19:17;;;;;;;10.85;8.40;;;;;;;;;;5055989;27;100856;-67
2022/03/04 13:21:44;;;;;;;8.18;6.75;;;;;;;;;;5063294;27;99780;-68
2022/03/04 13:24:12;;;;;;;8.43;7.53;;;;;;;;;;5059660;27;100199;-66
2022/03/04 13:26:45;;;;;;;8.63;7.10;;;;;;;;;;5053828;27;100798;-66
2022/03/04 13:29:12;;;;;;;10.60;7.35;;;;;;;;;;5056281;27;100564;-66
2022/03/04 13:31:38;;;;;;;8.88;7.43;;;;;;;;;;5056904;27;99372;-66
2022/03/04 13:34:06;;;;;;;9.82;7.45;;;;;;;;;;5058123;27;100032;-66
2022/03/04 13:36:51;;;;;;;8.30;7.40;;;;;;;;;;5055940;27;100150;-66
2022/03/04 13:39:21;;;;;;;6.93;5.95;;;;;;;;;;5058775;27;101452;-66
2022/03/04 13:42:05;;;;;;;10.75;6.57;;;;;;;;;;5054838;27;100339;-66
2022/03/04 13:44:31;;;;;;;6.10;4.70;;;;;;;;;;5059846;27;100045;-66
2022/03/04 13:47:06;;;;;;;11.10;6.07;;;;;;;;;;5056010;27;99485;-67
2022/03/04 13:49:46;;;;;;;6.93;6.22;;;;;;;;;;5062887;27;98996;-66
2022/03/04 13:52:13;;;;;;;9.02;6.25;;;;;;;;;;5063486;27;99383;-66
2022/03/04 13:54:49;;;;;;;12.00;6.60;;;;;;;;;;5059225;27;99459;-66
2022/03/04 13:57:29;;;;;;;7.00;6.30;;;;;;;;;;5058801;27;98290;-67
2022/03/04 14:00:10;;;;;;;9.02;6.68;;;;;;;;;;5061632;27;100832;-65
2022/03/04 14:02:38;;;;;;;6.93;6.00;;;;;;;;;;5058946;27;100760;-65
2022/03/04 14:05:05;;;;;;;5.47;4.97;;;;;;;;;;5064276;27;100144;-65
2022/03/04 14:07:45;;;;;;;9.55;5.45;;;;;;;;;;5064942;27;100174;-66
2022/03/04 14:10:12;;;;;;;7.90;6.18;;;;;;;;;;5062806;27;98993;-66
2022/03/04 14:12:39;;;;;;;9.20;6.32;;;;;;;;;;5061131;27;99061;-65
2022/03/04 14:15:07;;;;;;;8.82;5.30;;;;;;;;;;5060822;27;100468;-65
2022/03/04 14:17:47;;;;;;;6.07;5.47;;;;;;;;;;5060244;27;98913;-66
2022/03/04 14:20:13;;;;;;;7.13;5.60;;;;;;;;;;5062349;27;100108;-65